Messwerte Broughton Island Airport

Temperatur

Temperatur
°C
1627743600 11.00 11.00 3
1627747200 12.00 12.00 2
1627750800 13.00 13.00 4
1627754400 14.00 14.00 3
1627758000 15.00 15.00 3
1627761600 16.00 16.00 4
1627765200 17.00 17.00 3
1627768800 18.00 18.00 2
1627772400 19.00 19.00 2
1627776000 20.00 20.00 2
1627779600 21.00 21.00 1
1627783200 22.00 22.00 2
1627786800 23.00 23.00 2
1627790400 0.00 0.00 2
1627794000 1.00 1.00 1
1627797600 2.00 2.00
1627801200 3.00 3.00 1
1627804800 4.00 4.00 1
1627808400 5.00 5.00
1627812000 6.00 6.00 0
1627815600 7.00 7.00 0
1627819200 8.00 8.00 0
1627822800 9.00 9.00
1627826400 10.00 10.00 1

Aktuellste Messwerte

Wettercharakter
Wetter: Nebel
Temperatur
1 °C
Feuchtigkeit
100 %
Wind
15 km/hWindrichtung: Nordost
Luftdruck
1008 hPa
Messzeit: 1. August 2021, 10.00Datenquelle: METAR

Weitere Messstationen in der Nähe

Messstation Temperatur Entfernung
Clyde 5 °C 371 km
Iqaluit 11 °C 470 km

Wind

Windrichtung Böen Mittelwind
° km/h km/h
1627743600 11.00 10.00 - 11.00 20° 10
1627747200 12.00 11.00 - 12.00 10° 10
1627750800 13.00 12.00 - 13.00 20° 10
1627754400 14.00 13.00 - 14.00 10° 10
1627758000 15.00 14.00 - 15.00 10° 10
1627761600 16.00 15.00 - 16.00 20° 10
1627765200 17.00 16.00 - 17.00 360° 10
1627768800 18.00 17.00 - 18.00 350° 5
1627772400 19.00 18.00 - 19.00 10° 10
1627776000 20.00 19.00 - 20.00 0
1627779600 21.00 20.00 - 21.00 270° 5
1627783200 22.00 21.00 - 22.00 200° 15
1627786800 23.00 22.00 - 23.00 200° 15
1627790400 0.00 23.00 - 0.00 210° 20
1627794000 1.00 0.00 - 1.00 200° 20
1627797600 2.00 1.00 - 2.00
1627801200 3.00 2.00 - 3.00 210° 20
1627804800 4.00 3.00 - 4.00 200° 20
1627808400 5.00 4.00 - 5.00
1627812000 6.00 5.00 - 6.00 10° 10
1627815600 7.00 6.00 - 7.00 30° 15
1627819200 8.00 7.00 - 8.00 40° 10
1627822800 9.00 8.00 - 9.00
1627826400 10.00 9.00 - 10.00 50° 15

Ihre Wetterstation

Fehlt Ihre Wetterstation auf unserem Portal?

Schreiben Sie an network@meteonews.ch

Klima

Wann ist es am wärmsten? Wann regnet es am wenigsten? Unsere Klimadaten geben Auskunft.